Time;durP1;ratioP1;P1;durP2;ratioP2;P2;SDS_P1;SDS_P2;PMS_P1;PMS_P2;Temp;Humidity;BMP_temperature;BMP_pressure;BME280_temperature;BME280_humidity;BME280_pressure;Samples;Min_cycle;Max_cycle;Signal;HPM_P1;HPM_P2
2022/01/15 00:02:02;;;;;;;;;;;-0.20;92.70;;;;;;4834363;29;19924;-78
2022/01/15 00:04:29;;;;;;;;;;;-0.20;92.80;;;;;;4831598;29;19924;-78
2022/01/15 00:06:57;;;;;;;;;;;-0.20;92.70;;;;;;4833397;29;20265;-78
2022/01/15 00:09:24;;;;;;;;;;;-0.20;92.70;;;;;;4829741;29;19935;-78
2022/01/15 00:11:53;;;;;;;;;;;-0.20;92.70;;;;;;4838080;29;19924;-78
2022/01/15 00:14:26;;;;;;;;;;;-0.20;92.70;;;;;;4824750;29;19925;-78
2022/01/15 00:17:04;;;;;;;;;;;-0.30;92.70;;;;;;4824781;29;19947;-78
2022/01/15 00:19:41;;;;;;;;;;;-0.30;92.70;;;;;;4842687;29;19925;-80
2022/01/15 00:22:15;;;;;;;;;;;-0.30;92.70;;;;;;4822818;29;20341;-77
2022/01/15 00:24:43;;;;;;;;;;;-0.40;92.70;;;;;;4841577;29;19928;-78
2022/01/15 00:27:12;;;;;;;;;;;-0.40;92.70;;;;;;4841991;29;19925;-78
2022/01/15 00:29:39;;;;;;;;;;;-0.40;92.70;;;;;;4815043;29;19954;-78
2022/01/15 00:32:08;;;;;;;;;;;-0.50;92.70;;;;;;4840261;29;19924;-78
2022/01/15 00:34:35;;;;;;;;;;;-0.50;92.80;;;;;;4852551;29;20416;-78
2022/01/15 00:37:04;;;;;;;;;;;-0.60;92.80;;;;;;4838179;29;19928;-78
2022/01/15 00:39:31;;;;;;;;;;;-0.60;92.80;;;;;;4836561;29;19924;-78
2022/01/15 00:41:59;;;;;;;;;;;-0.60;92.80;;;;;;4833578;29;19925;-79
2022/01/15 00:44:26;;;;;;;;;;;-0.70;92.80;;;;;;4842196;29;19928;-78
2022/01/15 00:46:53;;;;;;;;;;;-0.80;92.80;;;;;;4836768;29;19925;-78
2022/01/15 00:49:21;;;;;;;;;;;-0.80;92.70;;;;;;4825235;29;19924;-78
2022/01/15 00:51:48;;;;;;;;;;;-0.90;92.70;;;;;;4835732;29;19924;-79
2022/01/15 00:54:16;;;;;;;;;;;-1.00;92.80;;;;;;4830857;29;19932;-79
2022/01/15 00:56:43;;;;;;;;;;;-1.00;92.80;;;;;;4826154;29;20312;-79
2022/01/15 00:59:11;;;;;;;;;;;-1.00;92.90;;;;;;4839343;29;19924;-78
2022/01/15 01:01:38;;;;;;;;;;;-1.00;93.00;;;;;;4840532;29;19924;-79
2022/01/15 01:04:06;;;;;;;;;;;-1.10;92.90;;;;;;4843336;29;19940;-78
2022/01/15 01:06:33;;;;;;;;;;;-1.10;92.90;;;;;;4824562;29;19931;-77
2022/01/15 01:09:00;;;;;;;;;;;-1.20;93.00;;;;;;4845024;29;19948;-78
2022/01/15 01:11:41;;;;;;;;;;;-1.20;93.10;;;;;;4854313;29;19924;-78
2022/01/15 01:24:46;;;;;;;;;;;-1.30;93.10;;;;;;4827683;29;19935;-78
2022/01/15 01:27:22;;;;;;;;;;;-1.30;93.10;;;;;;4824775;29;19928;-78
2022/01/15 01:32:42;;;;;;;;;;;-1.40;93.10;;;;;;4824005;29;19929;-78
2022/01/15 01:35:15;;;;;;;;;;;-1.40;93.10;;;;;;4850920;29;20301;-78
2022/01/15 01:37:50;;;;;;;;;;;-1.40;93.10;;;;;;4842108;29;19924;-78
2022/01/15 01:40:22;;;;;;;;;;;-1.40;93.20;;;;;;4834706;29;19924;-79
2022/01/15 01:43:02;;;;;;;;;;;-1.40;93.10;;;;;;4831306;29;19939;-79
2022/01/15 01:45:30;;;;;;;;;;;-1.40;93.10;;;;;;4833116;29;19928;-79
2022/01/15 01:47:57;;;;;;;;;;;-1.50;93.00;;;;;;4823574;29;19925;-79
2022/01/15 01:50:26;;;;;;;;;;;-1.50;93.00;;;;;;4823681;29;19925;-79
2022/01/15 01:52:55;;;;;;;;;;;-1.60;92.90;;;;;;4823742;29;19924;-77
2022/01/15 01:55:24;;;;;;;;;;;-1.60;92.80;;;;;;4837586;29;19960;-78
2022/01/15 01:57:52;;;;;;;;;;;-1.70;92.90;;;;;;4834689;29;19928;-78
2022/01/15 02:00:21;;;;;;;;;;;-1.70;92.80;;;;;;4825768;29;19932;-78
2022/01/15 02:02:50;;;;;;;;;;;-1.70;92.80;;;;;;4841795;29;19931;-79
2022/01/15 02:05:18;;;;;;;;;;;-1.80;92.90;;;;;;4840061;29;19931;-79
2022/01/15 02:07:46;;;;;;;;;;;-1.80;93.10;;;;;;4834645;29;19936;-79
2022/01/15 02:10:16;;;;;;;;;;;-1.80;93.10;;;;;;4822576;29;19924;-79
2022/01/15 02:12:44;;;;;;;;;;;-1.80;93.10;;;;;;4824057;29;19925;-78
2022/01/15 02:15:16;;;;;;;;;;;-1.80;93.20;;;;;;4831865;29;19932;-80
2022/01/15 02:17:44;;;;;;;;;;;-1.80;93.20;;;;;;4836890;29;20392;-79
2022/01/15 02:25:46;;;;;;;;;;;-1.90;93.20;;;;;;4835091;29;19924;-78
2022/01/15 02:28:14;;;;;;;;;;;-1.90;93.10;;;;;;4830426;29;19936;-78
2022/01/15 02:30:41;;;;;;;;;;;-2.00;93.10;;;;;;4827672;29;19925;-78
2022/01/15 02:33:09;;;;;;;;;;;-2.00;93.00;;;;;;4794856;29;19943;-79
2022/01/15 02:35:36;;;;;;;;;;;-2.00;92.90;;;;;;4827849;29;19924;-78
2022/01/15 02:38:04;;;;;;;;;;;-2.10;92.90;;;;;;4817271;29;19931;-79
2022/01/15 02:40:37;;;;;;;;;;;-2.10;92.90;;;;;;4823805;29;20424;-79
2022/01/15 02:43:06;;;;;;;;;;;-2.20;93.00;;;;;;4832037;29;19932;-78
2022/01/15 02:45:35;;;;;;;;;;;-2.10;93.10;;;;;;4824878;29;20266;-78
2022/01/15 02:48:09;;;;;;;;;;;-2.10;93.10;;;;;;4822790;29;20467;-78
2022/01/15 02:50:37;;;;;;;;;;;-2.20;93.20;;;;;;4823064;29;19925;-78
2022/01/15 02:53:05;;;;;;;;;;;-2.10;93.30;;;;;;4834840;29;19929;-78
2022/01/15 02:55:32;;;;;;;;;;;-2.10;93.30;;;;;;4815958;29;19925;-79
2022/01/15 02:58:00;;;;;;;;;;;-2.10;93.30;;;;;;4823469;29;19932;-78
2022/01/15 03:00:28;;;;;;;;;;;-2.10;93.20;;;;;;4832362;29;20304;-78
2022/01/15 03:02:55;;;;;;;;;;;-2.10;93.20;;;;;;4819378;29;19931;-79
2022/01/15 03:05:23;;;;;;;;;;;-2.10;93.20;;;;;;4834782;29;19924;-79
2022/01/15 03:07:51;;;;;;;;;;;-2.20;93.10;;;;;;4822588;29;19925;-79
2022/01/15 03:10:19;;;;;;;;;;;-2.20;93.10;;;;;;4837083;29;19929;-78
2022/01/15 03:12:47;;;;;;;;;;;-2.10;93.20;;;;;;4838306;29;19925;-77
2022/01/15 03:15:19;;;;;;;;;;;-2.20;93.20;;;;;;4839924;29;19925;-78
2022/01/15 03:17:47;;;;;;;;;;;-2.10;93.20;;;;;;4823964;29;19924;-78
2022/01/15 03:20:16;;;;;;;;;;;-2.20;93.10;;;;;;4830680;29;19931;-79
2022/01/15 03:22:44;;;;;;;;;;;-2.20;93.00;;;;;;4818268;29;19932;-79
2022/01/15 03:25:12;;;;;;;;;;;-2.20;93.00;;;;;;4843661;29;19932;-79
2022/01/15 03:27:40;;;;;;;;;;;-2.30;93.00;;;;;;4840778;29;20311;-78
2022/01/15 03:30:09;;;;;;;;;;;-2.30;93.00;;;;;;4841985;29;19933;-79
2022/01/15 03:32:39;;;;;;;;;;;-2.40;93.10;;;;;;4831976;29;19924;-79
2022/01/15 03:35:06;;;;;;;;;;;-2.30;93.20;;;;;;4835393;29;20019;-79
2022/01/15 03:37:34;;;;;;;;;;;-2.30;93.30;;;;;;4833518;29;19929;-79
2022/01/15 03:40:01;;;;;;;;;;;-2.30;93.30;;;;;;4810517;29;19944;-79
2022/01/15 03:42:29;;;;;;;;;;;-2.30;93.30;;;;;;4832232;29;19932;-79
2022/01/15 03:44:56;;;;;;;;;;;-2.30;93.40;;;;;;4835291;29;19924;-79
2022/01/15 03:47:23;;;;;;;;;;;-2.30;93.30;;;;;;4835561;29;19924;-79
2022/01/15 03:49:51;;;;;;;;;;;-2.30;93.30;;;;;;4834845;29;19924;-80
2022/01/15 03:52:18;;;;;;;;;;;-2.30;93.30;;;;;;4834022;29;19925;-77
2022/01/15 03:54:46;;;;;;;;;;;-2.20;93.30;;;;;;4818465;29;19925;-77
2022/01/15 03:57:13;;;;;;;;;;;-2.30;93.20;;;;;;4838283;29;19944;-78
2022/01/15 03:59:41;;;;;;;;;;;-2.30;93.10;;;;;;4827827;29;19947;-78
2022/01/15 04:02:08;;;;;;;;;;;-2.30;93.10;;;;;;4831716;29;20308;-78
2022/01/15 04:04:36;;;;;;;;;;;-2.40;93.00;;;;;;4817481;29;19947;-78
2022/01/15 04:07:04;;;;;;;;;;;-2.40;93.00;;;;;;4827625;29;19924;-78
2022/01/15 04:09:31;;;;;;;;;;;-2.50;93.00;;;;;;4817825;29;20308;-79
2022/01/15 04:11:59;;;;;;;;;;;-2.50;93.20;;;;;;4840346;29;19925;-78
2022/01/15 04:14:26;;;;;;;;;;;-2.50;93.30;;;;;;4830711;29;19932;-78
2022/01/15 04:16:54;;;;;;;;;;;-2.40;93.40;;;;;;4824306;29;19931;-79
2022/01/15 04:19:21;;;;;;;;;;;-2.40;93.40;;;;;;4816660;29;19948;-78
2022/01/15 04:21:49;;;;;;;;;;;-2.40;93.50;;;;;;4839334;29;19932;-78
2022/01/15 04:24:17;;;;;;;;;;;-2.40;93.40;;;;;;4830450;29;19931;-82
2022/01/15 04:26:45;;;;;;;;;;;-2.40;93.50;;;;;;4835518;29;19929;-78
2022/01/15 04:29:14;;;;;;;;;;;-2.40;93.50;;;;;;4834170;29;19931;-79
2022/01/15 04:31:48;;;;;;;;;;;-2.40;93.50;;;;;;4814812;29;19924;-78
2022/01/15 04:34:22;;;;;;;;;;;-2.30;93.50;;;;;;4841508;29;19931;-78
2022/01/15 04:36:51;;;;;;;;;;;-2.40;93.30;;;;;;4833792;29;20381;-78
2022/01/15 04:39:18;;;;;;;;;;;-2.40;93.40;;;;;;4812383;29;19925;-78
2022/01/15 04:41:46;;;;;;;;;;;-2.40;93.40;;;;;;4836040;29;19929;-78
2022/01/15 04:44:13;;;;;;;;;;;-2.40;93.30;;;;;;4826376;29;19924;-78
2022/01/15 04:46:41;;;;;;;;;;;-2.40;93.20;;;;;;4836367;29;20285;-78
2022/01/15 04:49:08;;;;;;;;;;;-2.40;93.20;;;;;;4823969;29;19944;-78
2022/01/15 04:51:36;;;;;;;;;;;-2.50;93.10;;;;;;4837059;29;19932;-77
2022/01/15 04:54:03;;;;;;;;;;;-2.50;93.10;;;;;;4830223;29;19932;-77
2022/01/15 04:56:31;;;;;;;;;;;-2.50;93.10;;;;;;4826445;29;20281;-78
2022/01/15 04:58:58;;;;;;;;;;;-2.60;93.10;;;;;;4815799;29;19924;-77
2022/01/15 05:01:26;;;;;;;;;;;-2.60;93.10;;;;;;4827553;29;19932;-77
2022/01/15 05:03:53;;;;;;;;;;;-2.60;93.10;;;;;;4827074;29;19925;-78
2022/01/15 05:06:21;;;;;;;;;;;-2.70;93.20;;;;;;4809626;29;19925;-77
2022/01/15 05:08:52;;;;;;;;;;;-2.60;93.40;;;;;;4829103;29;19925;-77
2022/01/15 05:11:30;;;;;;;;;;;-2.60;93.50;;;;;;4837450;29;20269;-78
2022/01/15 05:13:58;;;;;;;;;;;-2.60;93.50;;;;;;4827538;29;19932;-77
2022/01/15 05:16:25;;;;;;;;;;;-2.60;93.50;;;;;;4826147;29;20316;-77
2022/01/15 05:18:53;;;;;;;;;;;-2.60;93.40;;;;;;4836019;29;19932;-77
2022/01/15 05:21:20;;;;;;;;;;;-2.60;93.40;;;;;;4837026;29;19933;-78
2022/01/15 05:23:47;;;;;;;;;;;-2.60;93.30;;;;;;4834474;29;19932;-77
2022/01/15 05:26:15;;;;;;;;;;;-2.60;93.30;;;;;;4835245;29;19925;-77
2022/01/15 05:28:42;;;;;;;;;;;-2.60;93.30;;;;;;4833710;29;20338;-77
2022/01/15 05:31:10;;;;;;;;;;;-2.70;93.20;;;;;;4830447;29;19928;-77
2022/01/15 05:33:37;;;;;;;;;;;-2.80;93.10;;;;;;4835396;29;19931;-77
2022/01/15 05:36:05;;;;;;;;;;;-2.80;93.00;;;;;;4818768;29;20309;-77
2022/01/15 05:38:32;;;;;;;;;;;-2.80;93.30;;;;;;4836445;29;19924;-77
2022/01/15 05:41:00;;;;;;;;;;;-2.80;93.50;;;;;;4830649;29;19925;-77
2022/01/15 05:43:27;;;;;;;;;;;-2.60;93.80;;;;;;4826480;29;19925;-77
2022/01/15 05:45:54;;;;;;;;;;;-2.60;94.00;;;;;;4824595;29;19925;-77
2022/01/15 05:48:22;;;;;;;;;;;-2.40;94.20;;;;;;4830353;29;21614;-77
2022/01/15 05:50:49;;;;;;;;;;;-2.20;94.30;;;;;;4807935;29;19936;-78
2022/01/15 05:53:17;;;;;;;;;;;-2.00;94.20;;;;;;4827146;29;19925;-77
2022/01/15 05:55:44;;;;;;;;;;;-1.90;94.10;;;;;;4831668;29;19925;-77
2022/01/15 05:58:12;;;;;;;;;;;-1.90;94.00;;;;;;4831235;29;19963;-76
2022/01/15 06:00:39;;;;;;;;;;;-1.90;93.90;;;;;;4828802;29;19932;-77
2022/01/15 06:03:06;;;;;;;;;;;-1.80;93.80;;;;;;4819598;29;19924;-77
2022/01/15 06:05:34;;;;;;;;;;;-1.80;93.70;;;;;;4802967;29;20019;-77
2022/01/15 06:08:01;;;;;;;;;;;-1.80;93.70;;;;;;4835531;29;19932;-76
2022/01/15 06:10:29;;;;;;;;;;;-1.80;93.70;;;;;;4818519;29;19976;-76
2022/01/15 06:12:56;;;;;;;;;;;-1.80;93.60;;;;;;4831662;29;20352;-76
2022/01/15 06:15:24;;;;;;;;;;;-1.90;93.50;;;;;;4833065;29;20719;-77
2022/01/15 06:17:51;;;;;;;;;;;-1.90;93.40;;;;;;4838511;29;19935;-76
2022/01/15 06:20:18;;;;;;;;;;;-2.00;93.40;;;;;;4838304;29;19931;-76
2022/01/15 06:22:46;;;;;;;;;;;-2.00;93.60;;;;;;4839985;29;19933;-77
2022/01/15 06:25:13;;;;;;;;;;;-1.90;93.80;;;;;;4838618;29;20403;-76
2022/01/15 06:27:41;;;;;;;;;;;-1.90;94.00;;;;;;4821894;29;19928;-76
2022/01/15 06:30:08;;;;;;;;;;;-1.70;94.10;;;;;;4839464;29;20380;-76
2022/01/15 06:32:36;;;;;;;;;;;-1.80;94.10;;;;;;4840219;29;19933;-76
2022/01/15 06:35:08;;;;;;;;;;;-1.70;94.10;;;;;;4833744;29;19925;-77
2022/01/15 06:37:35;;;;;;;;;;;-1.70;94.00;;;;;;4833769;29;19925;-76
2022/01/15 06:40:04;;;;;;;;;;;-1.70;94.00;;;;;;4831995;29;19924;-76
2022/01/15 06:42:32;;;;;;;;;;;-1.70;94.00;;;;;;4826470;29;19928;-76
2022/01/15 06:44:59;;;;;;;;;;;-1.70;93.90;;;;;;4822267;29;19939;-76
2022/01/15 06:47:27;;;;;;;;;;;-1.70;94.00;;;;;;4824706;29;19924;-75
2022/01/15 06:49:58;;;;;;;;;;;-1.70;93.90;;;;;;4835422;29;20424;-75
2022/01/15 06:52:25;;;;;;;;;;;-1.70;93.80;;;;;;4826814;29;19932;-76
2022/01/15 06:54:53;;;;;;;;;;;-1.70;93.80;;;;;;4832357;29;19932;-76
2022/01/15 06:57:20;;;;;;;;;;;-1.80;93.70;;;;;;4828705;29;19925;-76
2022/01/15 06:59:48;;;;;;;;;;;-1.90;93.60;;;;;;4810504;29;19925;-76
2022/01/15 07:02:15;;;;;;;;;;;-1.90;93.50;;;;;;4836380;29;19932;-75
2022/01/15 07:04:43;;;;;;;;;;;-2.00;93.40;;;;;;4829608;29;20313;-76
2022/01/15 07:07:10;;;;;;;;;;;-2.10;93.30;;;;;;4828811;29;19935;-75
2022/01/15 07:09:37;;;;;;;;;;;-2.10;93.20;;;;;;4835992;29;19998;-75
2022/01/15 07:12:05;;;;;;;;;;;-2.20;93.10;;;;;;4836537;29;20312;-75
2022/01/15 07:14:32;;;;;;;;;;;-2.30;93.10;;;;;;4843151;29;19924;-76
2022/01/15 07:17:00;;;;;;;;;;;-2.30;93.20;;;;;;4832604;29;19944;-76
2022/01/15 07:19:27;;;;;;;;;;;-2.40;93.30;;;;;;4833452;29;19943;-76
2022/01/15 07:21:55;;;;;;;;;;;-2.40;93.40;;;;;;4837952;29;20257;-76
2022/01/15 07:24:23;;;;;;;;;;;-2.40;93.50;;;;;;4842035;29;19931;-77
2022/01/15 07:26:50;;;;;;;;;;;-2.40;93.50;;;;;;4828727;29;19924;-75
2022/01/15 07:29:17;;;;;;;;;;;-2.50;93.50;;;;;;4819559;29;19924;-76
2022/01/15 07:31:46;;;;;;;;;;;-2.50;93.40;;;;;;4837725;29;19928;-76
2022/01/15 07:34:14;;;;;;;;;;;-2.50;93.50;;;;;;4830722;29;19925;-76
2022/01/15 07:36:42;;;;;;;;;;;-2.50;93.60;;;;;;4816121;29;19944;-75
2022/01/15 07:39:10;;;;;;;;;;;-2.50;93.80;;;;;;4837251;29;20404;-77
2022/01/15 07:41:37;;;;;;;;;;;-2.40;94.00;;;;;;4840491;29;19925;-77
2022/01/15 07:44:05;;;;;;;;;;;-2.40;94.10;;;;;;4840036;29;20308;-76
2022/01/15 07:46:32;;;;;;;;;;;-2.30;94.30;;;;;;4834207;29;19932;-78
2022/01/15 07:49:00;;;;;;;;;;;-2.20;94.40;;;;;;4838968;29;19931;-78
2022/01/15 07:51:28;;;;;;;;;;;-2.20;94.50;;;;;;4829767;29;20392;-77
2022/01/15 07:53:55;;;;;;;;;;;-2.10;94.50;;;;;;4828916;29;20297;-77
2022/01/15 07:56:23;;;;;;;;;;;-2.10;94.50;;;;;;4829795;29;19925;-77
2022/01/15 07:58:50;;;;;;;;;;;-2.00;94.40;;;;;;4837104;29;19924;-79
2022/01/15 08:01:17;;;;;;;;;;;-2.00;94.40;;;;;;4833597;29;19925;-77
2022/01/15 08:03:46;;;;;;;;;;;-2.00;94.30;;;;;;4818761;29;19929;-77
2022/01/15 08:06:14;;;;;;;;;;;-2.00;94.20;;;;;;4826435;29;19931;-76
2022/01/15 08:08:41;;;;;;;;;;;-2.00;94.20;;;;;;4819638;29;19935;-77
2022/01/15 08:11:09;;;;;;;;;;;-1.90;94.20;;;;;;4836786;29;20286;-77
2022/01/15 08:13:36;;;;;;;;;;;-1.90;94.20;;;;;;4830854;29;19932;-77
2022/01/15 08:16:08;;;;;;;;;;;-1.90;94.20;;;;;;4833780;29;20380;-76
2022/01/15 08:18:36;;;;;;;;;;;-1.90;94.10;;;;;;4839839;29;20011;-76
2022/01/15 08:21:05;;;;;;;;;;;-1.80;94.10;;;;;;4837044;29;19925;-76
2022/01/15 08:23:33;;;;;;;;;;;-1.80;94.10;;;;;;4835027;29;20600;-75
2022/01/15 08:26:00;;;;;;;;;;;-1.80;94.10;;;;;;4826805;29;19925;-76
2022/01/15 08:28:28;;;;;;;;;;;-1.70;94.10;;;;;;4840314;29;19924;-76
2022/01/15 08:30:55;;;;;;;;;;;-1.70;94.10;;;;;;4830233;29;19931;-76
2022/01/15 08:33:23;;;;;;;;;;;-1.70;94.20;;;;;;4838012;29;19925;-77
2022/01/15 08:35:50;;;;;;;;;;;-1.60;94.20;;;;;;4838510;29;19932;-77
2022/01/15 08:38:18;;;;;;;;;;;-1.60;94.20;;;;;;4832923;29;19925;-77
2022/01/15 08:40:45;;;;;;;;;;;-1.50;94.20;;;;;;4835383;29;19924;-77
2022/01/15 08:43:14;;;;;;;;;;;-1.40;94.20;;;;;;4831835;29;19932;-76
2022/01/15 08:45:42;;;;;;;;;;;-1.30;94.20;;;;;;4834469;29;19924;-77
2022/01/15 08:48:10;;;;;;;;;;;-1.20;94.20;;;;;;4824724;29;19932;-77
2022/01/15 08:50:38;;;;;;;;;;;-1.20;94.10;;;;;;4832066;29;19924;-77
2022/01/15 08:53:06;;;;;;;;;;;-1.10;94.10;;;;;;4831463;29;19925;-76
2022/01/15 08:55:35;;;;;;;;;;;-1.10;94.10;;;;;;4832464;29;19947;-76
2022/01/15 08:58:03;;;;;;;;;;;-1.10;94.10;;;;;;4817410;29;19924;-77
2022/01/15 09:00:31;;;;;;;;;;;-1.00;94.10;;;;;;4833764;29;19924;-77
2022/01/15 09:02:58;;;;;;;;;;;-0.90;94.00;;;;;;4829218;29;19928;-77
2022/01/15 09:05:26;;;;;;;;;;;-0.90;93.90;;;;;;4830254;29;19924;-77
2022/01/15 09:07:54;;;;;;;;;;;-0.90;93.90;;;;;;4816414;29;19924;-76
2022/01/15 09:10:22;;;;;;;;;;;-0.80;93.90;;;;;;4839150;29;19925;-76
2022/01/15 09:12:52;;;;;;;;;;;-0.80;93.90;;;;;;4830448;29;20031;-75
2022/01/15 09:15:29;;;;;;;;;;;-0.70;93.90;;;;;;4814490;29;19924;-77
2022/01/15 09:17:56;;;;;;;;;;;-0.70;93.80;;;;;;4833748;29;19944;-77
2022/01/15 09:20:23;;;;;;;;;;;-0.70;93.60;;;;;;4832244;29;19932;-77
2022/01/15 09:22:51;;;;;;;;;;;-0.70;93.60;;;;;;4833114;29;19928;-77
2022/01/15 09:25:18;;;;;;;;;;;-0.70;93.80;;;;;;4813058;29;19925;-77
2022/01/15 09:30:32;;;;;;;;;;;-0.70;93.60;;;;;;4831120;29;20336;-77
2022/01/15 09:33:00;;;;;;;;;;;-0.80;93.50;;;;;;4817993;29;20297;-76
2022/01/15 09:35:28;;;;;;;;;;;-0.80;93.50;;;;;;4829979;29;19925;-76
2022/01/15 09:37:55;;;;;;;;;;;-0.80;93.70;;;;;;4829472;29;20305;-76
2022/01/15 09:40:25;;;;;;;;;;;-0.80;93.90;;;;;;4838076;29;19928;-77
2022/01/15 09:42:53;;;;;;;;;;;-0.70;94.00;;;;;;4828205;29;19932;-75
2022/01/15 09:45:22;;;;;;;;;;;-0.60;94.10;;;;;;4840624;29;19948;-78
2022/01/15 09:47:54;;;;;;;;;;;-0.60;93.90;;;;;;4827330;29;19924;-75
2022/01/15 09:50:22;;;;;;;;;;;-0.50;93.80;;;;;;4793310;29;19924;-75
2022/01/15 09:52:50;;;;;;;;;;;-0.50;93.90;;;;;;4832295;29;20278;-75
2022/01/15 09:55:20;;;;;;;;;;;-0.40;94.00;;;;;;4830716;29;20274;-75
2022/01/15 09:57:48;;;;;;;;;;;-0.30;94.00;;;;;;4831213;29;19933;-75
2022/01/15 10:00:17;;;;;;;;;;;-0.20;94.00;;;;;;4830914;29;19932;-75
2022/01/15 10:02:46;;;;;;;;;;;-0.10;94.00;;;;;;4831331;29;19925;-75
2022/01/15 10:05:14;;;;;;;;;;;0.00;94.00;;;;;;4831416;29;19936;-75
2022/01/15 10:07:54;;;;;;;;;;;0.00;93.90;;;;;;4832932;29;19929;-76
2022/01/15 10:10:22;;;;;;;;;;;0.10;93.90;;;;;;4827334;29;19924;-76
2022/01/15 10:12:49;;;;;;;;;;;0.20;93.90;;;;;;4831175;29;20384;-75
2022/01/15 10:15:17;;;;;;;;;;;0.20;93.90;;;;;;4830123;29;19924;-75
2022/01/15 10:17:45;;;;;;;;;;;0.20;93.80;;;;;;4831211;29;19925;-75
2022/01/15 10:20:23;;;;;;;;;;;0.30;93.80;;;;;;4830323;29;19924;-75
2022/01/15 10:22:52;;;;;;;;;;;0.30;93.80;;;;;;4832005;29;19932;-76
2022/01/15 10:25:21;;;;;;;;;;;0.40;93.80;;;;;;4829539;29;19932;-76
2022/01/15 10:27:52;;;;;;;;;;;0.50;93.90;;;;;;4832206;29;19924;-76
2022/01/15 10:30:20;;;;;;;;;;;0.60;93.90;;;;;;4828982;29;20305;-76
2022/01/15 10:32:59;;;;;;;;;;;0.70;94.00;;;;;;4811384;29;19924;-77
2022/01/15 10:35:30;;;;;;;;;;;0.80;94.00;;;;;;4830945;29;19928;-77
2022/01/15 10:38:02;;;;;;;;;;;1.00;93.90;;;;;;4823647;29;19925;-77
2022/01/15 10:40:41;;;;;;;;;;;1.10;93.80;;;;;;4831790;29;19924;-78
2022/01/15 10:43:09;;;;;;;;;;;1.20;93.70;;;;;;4823493;29;19924;-78
2022/01/15 10:45:50;;;;;;;;;;;1.30;93.60;;;;;;4827730;29;20415;-78
2022/01/15 10:48:22;;;;;;;;;;;1.30;93.60;;;;;;4841553;29;19925;-78
2022/01/15 10:50:57;;;;;;;;;;;1.30;93.60;;;;;;4840515;29;19924;-79
2022/01/15 10:53:33;;;;;;;;;;;1.50;93.70;;;;;;4825497;29;19925;-79
2022/01/15 10:56:01;;;;;;;;;;;1.60;93.70;;;;;;4806743;29;19925;-78
2022/01/15 10:58:29;;;;;;;;;;;1.80;93.60;;;;;;4838780;29;19924;-78
2022/01/15 11:00:57;;;;;;;;;;;1.80;93.50;;;;;;4831494;29;20392;-78
2022/01/15 11:03:34;;;;;;;;;;;1.80;93.40;;;;;;4826887;29;20388;-79
2022/01/15 11:06:02;;;;;;;;;;;1.90;93.30;;;;;;4837841;29;19944;-78
2022/01/15 11:08:33;;;;;;;;;;;2.00;93.20;;;;;;4822545;29;19933;-79
2022/01/15 11:11:08;;;;;;;;;;;2.00;93.20;;;;;;4821067;29;19925;-78
2022/01/15 11:13:43;;;;;;;;;;;2.10;93.10;;;;;;4819028;29;19928;-79
2022/01/15 11:16:15;;;;;;;;;;;2.20;93.00;;;;;;4834400;29;19932;-78
2022/01/15 11:18:48;;;;;;;;;;;2.20;93.00;;;;;;4830397;29;19935;-78
2022/01/15 11:21:18;;;;;;;;;;;2.30;93.00;;;;;;4831166;29;20389;-78
2022/01/15 11:23:46;;;;;;;;;;;2.40;93.00;;;;;;4827513;29;19932;-78
2022/01/15 11:26:23;;;;;;;;;;;2.50;92.90;;;;;;4826951;29;19933;-78
2022/01/15 11:28:53;;;;;;;;;;;2.70;92.90;;;;;;4828741;29;20373;-78
2022/01/15 11:31:39;;;;;;;;;;;2.80;92.70;;;;;;4827351;29;19931;-78
2022/01/15 11:34:08;;;;;;;;;;;2.90;92.60;;;;;;4821975;29;19940;-79
2022/01/15 11:36:39;;;;;;;;;;;2.90;92.20;;;;;;4816741;29;19940;-79
2022/01/15 11:39:08;;;;;;;;;;;2.80;92.10;;;;;;4830887;29;19931;-79
2022/01/15 11:41:40;;;;;;;;;;;2.90;92.20;;;;;;4828927;29;20415;-78
2022/01/15 11:44:09;;;;;;;;;;;2.90;92.20;;;;;;4839342;29;19940;-78
2022/01/15 11:46:42;;;;;;;;;;;2.90;92.20;;;;;;4829464;29;20321;-79
2022/01/15 11:49:26;;;;;;;;;;;2.90;92.10;;;;;;4833610;29;19932;-79
2022/01/15 11:51:56;;;;;;;;;;;2.90;92.10;;;;;;4832570;29;19929;-78
2022/01/15 11:54:24;;;;;;;;;;;2.80;92.10;;;;;;4833487;29;19939;-78
2022/01/15 11:56:51;;;;;;;;;;;2.90;92.00;;;;;;4832108;29;19951;-79
2022/01/15 11:59:25;;;;;;;;;;;2.80;91.90;;;;;;4825052;29;19925;-76
2022/01/15 12:02:01;;;;;;;;;;;2.70;91.90;;;;;;4830387;29;19943;-85
2022/01/15 12:04:30;;;;;;;;;;;2.70;91.90;;;;;;4835592;29;20380;-80
2022/01/15 12:07:06;;;;;;;;;;;2.60;92.00;;;;;;4827164;29;19925;-80
2022/01/15 12:09:34;;;;;;;;;;;2.60;92.10;;;;;;4828830;29;19929;-79
2022/01/15 12:12:02;;;;;;;;;;;2.70;92.10;;;;;;4828115;29;19935;-80
2022/01/15 12:14:46;;;;;;;;;;;2.70;92.10;;;;;;4826596;29;19935;-80
2022/01/15 12:17:37;;;;;;;;;;;2.70;92.00;;;;;;4825320;29;19932;-80
2022/01/15 12:20:05;;;;;;;;;;;2.70;91.90;;;;;;4821234;29;19933;-80
2022/01/15 12:22:43;;;;;;;;;;;2.70;91.90;;;;;;4833522;29;19925;-80
2022/01/15 12:25:17;;;;;;;;;;;2.70;91.90;;;;;;4811619;29;19932;-79
2022/01/15 12:27:46;;;;;;;;;;;2.70;91.80;;;;;;4836960;29;19938;-80
2022/01/15 12:30:17;;;;;;;;;;;2.60;91.90;;;;;;4827241;29;20423;-80
2022/01/15 12:32:49;;;;;;;;;;;2.70;91.90;;;;;;4830297;29;19939;-80
2022/01/15 12:35:21;;;;;;;;;;;2.70;92.00;;;;;;4834822;29;19935;-79
2022/01/15 12:38:01;;;;;;;;;;;2.80;91.90;;;;;;4829410;29;19936;-80
2022/01/15 12:40:33;;;;;;;;;;;2.80;91.90;;;;;;4817128;29;19931;-80
2022/01/15 12:43:05;;;;;;;;;;;2.90;91.90;;;;;;4834166;29;19940;-80
2022/01/15 12:45:34;;;;;;;;;;;3.00;91.90;;;;;;4831229;29;20498;-80
2022/01/15 12:48:05;;;;;;;;;;;3.10;91.90;;;;;;4831308;29;19935;-80
2022/01/15 12:50:50;;;;;;;;;;;3.30;91.80;;;;;;4829004;29;19937;-80
2022/01/15 12:53:19;;;;;;;;;;;3.30;91.70;;;;;;4827971;29;20296;-79
2022/01/15 12:55:47;;;;;;;;;;;3.40;91.60;;;;;;4831830;29;19931;-79
2022/01/15 12:58:19;;;;;;;;;;;3.50;91.50;;;;;;4823242;29;19932;-79
2022/01/15 13:00:47;;;;;;;;;;;3.60;91.50;;;;;;4832650;29;19925;-79
2022/01/15 13:03:18;;;;;;;;;;;3.70;91.30;;;;;;4832605;29;19939;-80
2022/01/15 13:05:50;;;;;;;;;;;3.70;91.20;;;;;;4831670;29;19925;-79
2022/01/15 13:08:18;;;;;;;;;;;3.70;91.20;;;;;;4818895;29;19925;-79
2022/01/15 13:10:51;;;;;;;;;;;3.80;91.10;;;;;;4824147;29;19924;-79
2022/01/15 13:13:20;;;;;;;;;;;3.70;91.10;;;;;;4835683;29;19925;-79
2022/01/15 13:15:48;;;;;;;;;;;3.70;91.10;;;;;;4820629;29;19933;-79
2022/01/15 13:18:16;;;;;;;;;;;3.70;91.10;;;;;;4830152;29;19934;-80
2022/01/15 13:20:49;;;;;;;;;;;3.70;91.10;;;;;;4818514;29;19932;-79
2022/01/15 13:23:16;;;;;;;;;;;3.70;91.10;;;;;;4830525;29;19936;-80
2022/01/15 13:25:47;;;;;;;;;;;3.70;91.10;;;;;;4824751;29;19924;-80
2022/01/15 13:28:15;;;;;;;;;;;3.70;91.00;;;;;;4832742;29;19943;-79
2022/01/15 13:30:47;;;;;;;;;;;3.70;91.00;;;;;;4834274;29;20304;-81
2022/01/15 13:33:15;;;;;;;;;;;3.70;91.00;;;;;;4828970;29;19951;-80
2022/01/15 13:35:45;;;;;;;;;;;3.70;91.00;;;;;;4832437;29;19929;-80
2022/01/15 13:38:14;;;;;;;;;;;3.80;91.00;;;;;;4831274;29;19929;-80
2022/01/15 13:40:46;;;;;;;;;;;3.80;90.90;;;;;;4825920;29;19925;-80
2022/01/15 13:43:24;;;;;;;;;;;3.80;90.80;;;;;;4827580;29;19925;-79
2022/01/15 13:46:03;;;;;;;;;;;3.80;90.70;;;;;;4828602;29;20451;-79
2022/01/15 13:48:31;;;;;;;;;;;3.90;90.70;;;;;;4811208;29;19935;-80
2022/01/15 13:53:48;;;;;;;;;;;4.00;90.60;;;;;;4829045;29;19950;-79
2022/01/15 13:56:20;;;;;;;;;;;4.10;90.50;;;;;;4820985;29;20307;-80
2022/01/15 13:58:51;;;;;;;;;;;4.10;90.50;;;;;;4816767;29;19941;-79
2022/01/15 14:01:20;;;;;;;;;;;4.10;90.40;;;;;;4814184;29;19932;-79
2022/01/15 14:03:48;;;;;;;;;;;4.10;90.40;;;;;;4831151;29;20003;-79
2022/01/15 14:06:16;;;;;;;;;;;4.10;90.30;;;;;;4831473;29;20285;-79
2022/01/15 14:08:47;;;;;;;;;;;4.10;90.30;;;;;;4832541;29;19925;-79
2022/01/15 14:11:16;;;;;;;;;;;4.10;90.30;;;;;;4832169;29;20415;-79
2022/01/15 14:13:44;;;;;;;;;;;4.00;90.10;;;;;;4824780;29;19931;-79
2022/01/15 14:16:26;;;;;;;;;;;4.00;90.20;;;;;;4817528;29;19924;-79
2022/01/15 14:19:00;;;;;;;;;;;3.90;90.10;;;;;;4833420;29;19928;-79
2022/01/15 14:21:53;;;;;;;;;;;4.00;90.20;;;;;;4832964;29;19935;-79
2022/01/15 14:24:21;;;;;;;;;;;3.90;90.10;;;;;;4834781;29;19931;-79
2022/01/15 14:26:50;;;;;;;;;;;3.90;90.10;;;;;;4833823;29;20388;-79
2022/01/15 14:29:17;;;;;;;;;;;3.90;90.10;;;;;;4843781;29;19928;-79
2022/01/15 14:31:45;;;;;;;;;;;3.90;90.10;;;;;;4836268;29;20316;-80
2022/01/15 14:34:13;;;;;;;;;;;3.90;90.10;;;;;;4831498;29;20389;-79
2022/01/15 14:36:40;;;;;;;;;;;3.90;90.00;;;;;;4828956;29;19940;-79
2022/01/15 14:39:08;;;;;;;;;;;3.90;90.00;;;;;;4816357;29;19932;-87
2022/01/15 14:41:37;;;;;;;;;;;3.90;90.00;;;;;;4829884;29;19925;-87
2022/01/15 14:44:04;;;;;;;;;;;3.80;90.00;;;;;;4825764;29;19925;-81
2022/01/15 14:46:34;;;;;;;;;;;3.80;90.10;;;;;;4813621;29;19939;-72
2022/01/15 14:49:04;;;;;;;;;;;3.80;90.00;;;;;;4828580;29;19928;-72
2022/01/15 14:51:32;;;;;;;;;;;3.80;90.00;;;;;;4807786;29;19924;-72
2022/01/15 14:54:00;;;;;;;;;;;3.80;90.00;;;;;;4832232;29;19940;-72
2022/01/15 14:56:30;;;;;;;;;;;3.80;90.10;;;;;;4828340;29;19925;-72
2022/01/15 14:59:00;;;;;;;;;;;3.70;90.10;;;;;;4805146;29;19932;-73